Time;durP1;ratioP1;P1;durP2;ratioP2;P2;SDS_P1;SDS_P2;PMS_P1;PMS_P2;Temp;Humidity;BMP_temperature;BMP_pressure;BME280_temperature;BME280_humidity;BME280_pressure;Samples;Min_cycle;Max_cycle;Signal;HPM_P1;HPM_P2
2023/03/23 00:01:59;;;;;;;2.95;1.73;;;12.30;1.00;;;;;;5001443;28;20417;-86
2023/03/23 00:04:25;;;;;;;1.92;1.73;;;12.30;99.90;;;;;;5018059;28;20387;-85
2023/03/23 00:06:51;;;;;;;3.10;1.90;;;12.30;1.00;;;;;;5000148;28;20399;-84
2023/03/23 00:09:23;;;;;;;2.50;1.80;;;12.30;1.00;;;;;;5005712;28;20458;-84
2023/03/23 00:11:49;;;;;;;2.95;2.00;;;12.30;1.00;;;;;;5028529;28;20426;-84
2023/03/23 00:14:14;;;;;;;2.67;1.90;;;12.30;1.00;;;;;;5030983;28;20425;-84
2023/03/23 00:16:44;;;;;;;2.00;1.90;;;12.20;1.00;;;;;;5023117;28;20446;-84
2023/03/23 00:19:15;;;;;;;2.22;1.80;;;12.30;1.00;;;;;;5020162;28;20397;-85
2023/03/23 00:21:42;;;;;;;2.40;2.00;;;12.40;1.00;;;;;;5006021;28;20453;-85
2023/03/23 00:24:10;;;;;;;2.33;1.80;;;12.40;1.00;;;;;;5000627;28;20487;-85
2023/03/23 00:26:39;;;;;;;2.27;2.07;;;12.40;1.00;;;;;;4999861;28;20491;-85
2023/03/23 00:29:26;;;;;;;2.72;2.00;;;12.50;99.90;;;;;;5001604;28;20884;-85
2023/03/23 00:31:51;;;;;;;1.90;1.80;;;12.50;26.90;;;;;;5000231;28;21095;-85
2023/03/23 00:34:22;;;;;;;2.35;1.90;;;12.50;1.00;;;;;;5000912;28;20417;-86
2023/03/23 00:36:49;;;;;;;2.30;1.90;;;12.40;1.00;;;;;;4997657;28;20761;-86
2023/03/23 00:39:16;;;;;;;3.80;1.60;;;12.50;64.80;;;;;;4999753;28;20390;-86
2023/03/23 00:41:43;;;;;;;3.03;1.90;;;12.60;1.00;;;;;;5001562;28;20387;-85
2023/03/23 00:44:09;;;;;;;1.92;1.73;;;12.70;99.90;;;;;;5001125;28;20398;-86
2023/03/23 00:46:44;;;;;;;2.75;1.90;;;12.70;21.40;;;;;;4999734;28;20406;-85
2023/03/23 00:49:12;;;;;;;2.30;1.77;;;12.60;99.90;;;;;;4999685;28;21090;-85
2023/03/23 00:51:39;;;;;;;2.45;1.90;;;12.60;99.90;;;;;;5000297;28;20497;-86
2023/03/23 00:54:04;;;;;;;2.72;1.80;;;12.60;1.00;;;;;;5000512;28;20418;-85
2023/03/23 00:56:30;;;;;;;2.87;1.70;;;12.60;1.00;;;;;;4999688;28;20398;-85
2023/03/23 00:58:56;;;;;;;2.40;1.50;;;12.70;99.90;;;;;;5015577;28;20410;-86
2023/03/23 01:01:21;;;;;;;2.00;1.70;;;13.30;99.90;;;;;;4997709;28;20457;-85
2023/03/23 01:03:47;;;;;;;2.30;2.00;;;13.10;99.90;;;;;;4999234;28;20909;-86
2023/03/23 01:06:12;;;;;;;3.25;1.80;;;13.10;1.00;;;;;;5000120;28;20742;-86
2023/03/23 01:08:44;;;;;;;1.93;1.40;;;13.00;99.90;;;;;;4998677;28;21027;-86
2023/03/23 01:11:13;;;;;;;2.63;1.60;;;13.40;99.90;;;;;;5011743;28;20475;-86
2023/03/23 01:13:40;;;;;;;2.08;1.80;;;13.60;1.00;;;;;;5018618;28;20399;-85
2023/03/23 01:16:06;;;;;;;2.05;1.60;;;13.90;1.00;;;;;;5011726;28;20908;-86
2023/03/23 01:18:31;;;;;;;1.87;1.10;;;14.30;99.90;;;;;;5011756;28;20955;-85
2023/03/23 01:20:57;;;;;;;1.87;1.30;;;14.90;1.00;;;;;;5002003;28;20383;-86
2023/03/23 01:23:23;;;;;;;1.20;1.10;;;15.10;1.00;;;;;;5000394;28;20495;-86
2023/03/23 01:25:49;;;;;;;2.00;1.10;;;15.50;1.00;;;;;;5017005;22;20449;-79
2023/03/23 01:28:14;;;;;;;2.10;1.10;;;15.50;1.00;;;;;;4995750;28;20400;-79
2023/03/23 01:30:40;;;;;;;1.10;1.00;;;15.50;1.00;;;;;;5013212;28;20826;-79
2023/03/23 01:33:06;;;;;;;1.77;1.20;;;15.50;1.00;;;;;;5013580;28;20455;-78
2023/03/23 01:35:31;;;;;;;2.00;1.20;;;15.80;1.00;;;;;;5014132;28;20891;-79
2023/03/23 01:37:57;;;;;;;1.30;1.10;;;15.70;1.00;;;;;;4996924;28;20415;-79
2023/03/23 01:40:22;;;;;;;2.35;1.30;;;15.90;1.00;;;;;;5015436;28;20396;-79
2023/03/23 01:42:48;;;;;;;1.40;1.30;;;15.90;1.00;;;;;;4996190;28;20468;-79
2023/03/23 01:45:19;;;;;;;2.17;1.40;;;15.90;1.00;;;;;;5013988;28;20392;-78
2023/03/23 01:47:53;;;;;;;1.42;1.30;;;15.90;99.90;;;;;;4995727;28;20736;-79
2023/03/23 01:50:23;;;;;;;1.50;1.40;;;16.20;99.90;;;;;;5013184;28;20385;-78
2023/03/23 01:52:51;;;;;;;2.00;1.10;;;16.30;99.90;;;;;;4995862;28;20463;-79
2023/03/23 01:55:18;;;;;;;0.90;0.90;;;16.30;99.90;;;;;;4994918;28;20408;-79
2023/03/23 01:57:45;;;;;;;1.40;1.00;;;16.20;99.90;;;;;;5012532;28;20381;-79
2023/03/23 02:00:14;;;;;;;2.00;1.20;;;16.40;99.90;;;;;;5012880;28;20556;-78
2023/03/23 02:02:43;;;;;;;2.08;1.40;;;16.30;99.90;;;;;;5012706;28;20389;-78
2023/03/23 02:05:15;;;;;;;3.40;1.20;;;16.20;99.90;;;;;;5012442;28;20381;-79
2023/03/23 02:07:42;;;;;;;1.70;1.30;;;16.40;99.90;;;;;;5012430;28;20419;-79
2023/03/23 02:10:08;;;;;;;1.40;1.30;;;16.60;99.90;;;;;;5015644;28;20383;-79
2023/03/23 02:12:34;;;;;;;1.10;1.00;;;16.60;99.90;;;;;;5032953;28;20390;-80
2023/03/23 02:15:00;;;;;;;1.40;1.10;;;16.70;99.90;;;;;;5014460;28;20407;-80
2023/03/23 02:18:09;;;;;;;1.27;1.17;;;16.70;99.90;;;;;;5013599;28;20901;-79
2023/03/23 02:20:53;;;;;;;1.60;1.20;;;16.70;99.90;;;;;;4906457;29;20506;-79
2023/03/23 02:23:46;;;;;;;2.65;1.20;;;16.70;99.90;;;;;;5007142;28;20447;-79
2023/03/23 02:26:28;;;;;;;2.03;1.10;;;16.70;99.90;;;;;;5011614;28;20484;-79
2023/03/23 02:29:21;;;;;;;1.40;1.20;;;16.80;99.90;;;;;;5012117;28;20385;-79
2023/03/23 02:32:02;;;;;;;1.42;1.10;;;16.70;99.90;;;;;;5011708;28;20808;-79
2023/03/23 02:34:32;;;;;;;2.15;1.25;;;16.70;99.90;;;;;;4994142;28;20547;-79
2023/03/23 02:37:06;;;;;;;1.10;1.00;;;16.70;99.90;;;;;;5011124;28;20426;-79
2023/03/23 02:39:46;;;;;;;3.00;1.00;;;16.70;99.90;;;;;;5012000;28;20744;-79
2023/03/23 02:42:16;;;;;;;1.90;1.40;;;16.60;99.90;;;;;;5011256;28;20377;-79
2023/03/23 02:44:45;;;;;;;1.27;1.17;;;16.60;99.90;;;;;;5011525;28;20389;-80
2023/03/23 02:47:20;;;;;;;1.17;1.05;;;16.70;99.90;;;;;;4993303;28;20947;-79
2023/03/23 02:49:51;;;;;;;1.20;1.10;;;16.70;99.90;;;;;;5011118;28;20404;-79
2023/03/23 02:52:21;;;;;;;1.27;1.17;;;16.80;99.90;;;;;;5011740;28;20399;-79
2023/03/23 02:54:49;;;;;;;1.35;1.25;;;16.70;99.90;;;;;;5010772;28;20412;-79
2023/03/23 02:57:16;;;;;;;1.48;1.17;;;16.70;99.90;;;;;;4993498;28;20759;-79
2023/03/23 02:59:41;;;;;;;1.30;1.17;;;16.80;99.90;;;;;;4994152;28;20399;-79
2023/03/23 03:02:12;;;;;;;1.27;1.03;;;16.60;99.90;;;;;;5011237;28;20400;-80
2023/03/23 03:04:40;;;;;;;1.42;1.10;;;16.50;99.90;;;;;;4993873;28;20403;-79
2023/03/23 03:07:11;;;;;;;1.40;1.10;;;16.60;99.90;;;;;;4993325;28;20417;-79
2023/03/23 03:09:49;;;;;;;1.50;1.00;;;16.60;99.90;;;;;;5011680;28;20568;-80
2023/03/23 03:12:27;;;;;;;1.30;1.20;;;16.50;99.90;;;;;;4992341;28;20494;-79
2023/03/23 03:15:07;;;;;;;1.95;1.38;;;16.60;99.90;;;;;;4981786;28;20479;-79
2023/03/23 03:17:39;;;;;;;1.20;1.00;;;16.70;99.90;;;;;;5004237;28;20389;-79
2023/03/23 03:20:09;;;;;;;1.50;1.30;;;16.70;99.90;;;;;;4992123;28;20389;-79
2023/03/23 03:22:38;;;;;;;1.30;1.20;;;17.00;99.90;;;;;;4983313;28;20452;-79
2023/03/23 03:25:06;;;;;;;2.30;1.20;;;17.10;99.90;;;;;;5013862;28;20420;-79
2023/03/23 03:27:32;;;;;;;1.30;1.20;;;17.20;99.90;;;;;;5014915;28;20450;-79
2023/03/23 03:30:00;;;;;;;1.10;1.00;;;17.20;99.90;;;;;;4997487;28;20883;-79
2023/03/23 03:32:36;;;;;;;2.90;1.50;;;17.10;99.90;;;;;;5015339;28;20483;-80
2023/03/23 03:35:03;;;;;;;2.80;1.10;;;17.30;99.90;;;;;;5015106;28;20453;-80
2023/03/23 03:37:36;;;;;;;1.30;1.20;;;17.20;99.90;;;;;;5014598;28;20455;-79
2023/03/23 03:40:10;;;;;;;1.00;0.90;;;17.20;99.90;;;;;;5015095;28;20416;-79
2023/03/23 03:42:37;;;;;;;1.90;1.10;;;17.10;99.90;;;;;;5015318;28;20381;-80
2023/03/23 03:45:03;;;;;;;1.48;1.38;;;17.10;99.90;;;;;;5015519;28;20407;-79
2023/03/23 03:47:29;;;;;;;1.30;1.20;;;17.00;99.90;;;;;;5014917;28;20879;-78
2023/03/23 03:49:54;;;;;;;1.30;1.20;;;17.10;99.90;;;;;;5014976;28;20404;-80
2023/03/23 03:52:20;;;;;;;1.30;1.17;;;16.90;99.90;;;;;;5015608;28;20395;-79
2023/03/23 03:54:46;;;;;;;1.38;1.27;;;17.00;99.90;;;;;;4997667;28;20408;-80
2023/03/23 03:57:12;;;;;;;1.50;1.40;;;17.00;99.90;;;;;;4996813;28;20396;-79
2023/03/23 03:59:38;;;;;;;1.40;1.20;;;17.00;99.90;;;;;;5014567;28;20389;-79
2023/03/23 04:02:03;;;;;;;1.42;1.30;;;17.00;99.90;;;;;;5019679;28;20400;-77
2023/03/23 04:04:29;;;;;;;1.60;1.30;;;17.00;99.90;;;;;;5018103;28;20455;-78
2023/03/23 04:06:54;;;;;;;1.30;1.20;;;17.00;99.90;;;;;;5022451;28;20893;-79
2023/03/23 04:09:21;;;;;;;2.50;1.40;;;17.00;99.90;;;;;;5004847;28;20491;-78
2023/03/23 04:11:46;;;;;;;1.95;1.27;;;17.00;99.90;;;;;;5021998;28;20395;-78
2023/03/23 04:14:12;;;;;;;1.50;1.30;;;17.00;99.90;;;;;;5038167;28;20411;-79
2023/03/23 04:16:37;;;;;;;1.70;1.30;;;17.00;99.90;;;;;;5036785;28;20390;-80
2023/03/23 04:19:03;;;;;;;1.30;1.20;;;17.10;99.90;;;;;;5031901;28;20905;-79
2023/03/23 04:21:29;;;;;;;1.50;1.40;;;17.10;99.90;;;;;;5014361;28;20442;-80
2023/03/23 04:23:58;;;;;;;1.88;1.35;;;17.00;99.90;;;;;;5014064;28;20917;-80
2023/03/23 04:26:28;;;;;;;1.80;1.30;;;17.00;99.90;;;;;;4996285;28;20875;-79
2023/03/23 04:28:55;;;;;;;2.40;1.20;;;17.00;99.90;;;;;;4996483;28;20409;-80
2023/03/23 04:31:20;;;;;;;1.20;1.10;;;16.90;99.90;;;;;;4997174;28;20461;-79
2023/03/23 04:33:46;;;;;;;1.73;1.30;;;16.90;99.90;;;;;;5014575;28;20416;-79
2023/03/23 04:36:15;;;;;;;1.40;1.30;;;17.00;99.90;;;;;;5012484;28;20397;-79
2023/03/23 04:38:42;;;;;;;1.35;1.25;;;17.10;99.90;;;;;;5014407;28;20377;-80
2023/03/23 04:41:08;;;;;;;1.80;1.40;;;17.20;99.90;;;;;;5014918;28;20407;-79
2023/03/23 04:43:41;;;;;;;2.85;1.50;;;17.20;99.90;;;;;;5014156;28;20864;-79
2023/03/23 04:46:08;;;;;;;1.80;1.30;;;17.10;99.90;;;;;;5013861;28;20396;-79
2023/03/23 04:48:34;;;;;;;2.33;1.38;;;17.10;99.90;;;;;;4996627;28;20799;-80
2023/03/23 04:51:05;;;;;;;3.60;1.30;;;17.00;99.90;;;;;;4996592;28;20381;-79
2023/03/23 04:53:31;;;;;;;2.00;1.40;;;17.00;99.90;;;;;;5014159;28;20395;-79
2023/03/23 04:55:57;;;;;;;3.20;1.80;;;17.10;99.90;;;;;;5014141;28;20380;-80
2023/03/23 04:58:24;;;;;;;2.40;1.40;;;17.00;99.90;;;;;;5014425;28;20431;-79
2023/03/23 05:00:50;;;;;;;2.20;1.60;;;17.00;99.90;;;;;;5013709;28;20532;-79
2023/03/23 05:03:20;;;;;;;1.60;1.50;;;16.90;99.90;;;;;;4996309;28;20381;-79
2023/03/23 05:05:46;;;;;;;1.40;1.30;;;17.00;99.90;;;;;;4995551;28;20393;-79
2023/03/23 05:08:13;;;;;;;1.80;1.60;;;16.90;99.90;;;;;;5013969;28;20758;-79
2023/03/23 05:10:39;;;;;;;1.60;1.45;;;16.90;99.90;;;;;;5003362;28;20422;-79
2023/03/23 05:13:05;;;;;;;2.70;1.70;;;16.80;99.90;;;;;;5033614;28;20395;-79
2023/03/23 05:15:30;;;;;;;1.73;1.40;;;16.80;99.90;;;;;;5034811;28;20402;-79
2023/03/23 05:17:56;;;;;;;1.80;1.60;;;16.80;99.90;;;;;;5001196;28;20393;-78
2023/03/23 05:20:22;;;;;;;2.30;1.50;;;16.80;99.90;;;;;;4995045;28;20500;-78
2023/03/23 05:22:49;;;;;;;3.05;1.70;;;16.70;99.90;;;;;;5013252;28;20391;-78
2023/03/23 05:25:18;;;;;;;2.55;1.50;;;16.70;99.90;;;;;;5012696;28;20392;-79
2023/03/23 05:27:48;;;;;;;2.60;1.70;;;16.60;99.90;;;;;;4996250;28;20546;-79
2023/03/23 05:30:16;;;;;;;2.50;1.50;;;16.60;99.90;;;;;;5013488;28;20428;-79
2023/03/23 05:32:44;;;;;;;2.20;1.70;;;16.60;99.90;;;;;;4996668;28;20404;-80
2023/03/23 05:35:12;;;;;;;3.70;1.60;;;16.40;99.90;;;;;;4995864;28;20408;-79
2023/03/23 05:37:38;;;;;;;2.20;1.60;;;16.40;99.90;;;;;;5013514;28;20464;-80
2023/03/23 05:40:06;;;;;;;2.03;1.70;;;16.40;99.90;;;;;;5013661;28;20479;-79
2023/03/23 05:42:35;;;;;;;1.90;1.70;;;16.30;99.90;;;;;;4996389;28;20453;-79
2023/03/23 05:45:03;;;;;;;3.10;1.42;;;16.30;99.90;;;;;;5013660;28;20484;-79
2023/03/23 05:47:28;;;;;;;2.40;1.70;;;16.30;99.90;;;;;;4995012;28;20421;-81
2023/03/23 05:49:54;;;;;;;2.05;1.70;;;16.40;99.90;;;;;;5015669;28;20413;-81
2023/03/23 05:52:20;;;;;;;2.40;1.60;;;16.40;99.90;;;;;;5014113;28;20893;-80
2023/03/23 05:54:46;;;;;;;2.20;1.70;;;16.30;99.90;;;;;;5013511;28;20412;-80
2023/03/23 05:57:11;;;;;;;2.65;1.85;;;16.30;99.90;;;;;;5013427;28;20397;-80
2023/03/23 05:59:37;;;;;;;2.10;1.90;;;16.30;99.90;;;;;;5013983;28;20385;-80
2023/03/23 06:02:05;;;;;;;2.87;1.50;;;16.20;99.90;;;;;;5014615;28;20384;-80
2023/03/23 06:04:33;;;;;;;2.92;1.60;;;16.20;99.90;;;;;;5014446;28;20396;-80
2023/03/23 06:07:00;;;;;;;2.60;1.63;;;16.20;99.90;;;;;;5013270;28;20883;-79
2023/03/23 06:09:26;;;;;;;2.13;1.60;;;16.10;99.90;;;;;;5012721;28;20401;-79
2023/03/23 06:11:51;;;;;;;2.30;1.80;;;16.10;99.90;;;;;;4995147;28;20600;-80
2023/03/23 06:14:17;;;;;;;2.40;2.00;;;16.10;99.90;;;;;;5013054;28;20415;-79
2023/03/23 06:16:43;;;;;;;2.10;1.70;;;16.10;99.90;;;;;;4995158;28;20416;-79
2023/03/23 06:19:08;;;;;;;3.27;1.90;;;16.00;99.90;;;;;;5013172;28;20391;-80
2023/03/23 06:21:34;;;;;;;2.28;1.80;;;15.90;99.90;;;;;;5013465;28;20428;-80
2023/03/23 06:24:00;;;;;;;2.30;2.00;;;15.80;99.90;;;;;;5014556;28;20403;-79
2023/03/23 06:26:38;;;;;;;2.30;2.00;;;15.80;99.90;;;;;;5012986;28;20848;-79
2023/03/23 06:29:11;;;;;;;1.70;1.60;;;15.70;99.90;;;;;;4995297;28;20411;-79
2023/03/23 06:31:44;;;;;;;3.33;2.00;;;15.70;99.90;;;;;;5013157;28;20508;-79
2023/03/23 06:34:11;;;;;;;2.50;1.80;;;15.60;99.90;;;;;;5014735;28;20416;-80
2023/03/23 06:36:38;;;;;;;2.60;2.20;;;15.60;99.90;;;;;;5012327;28;20808;-80
2023/03/23 06:39:04;;;;;;;2.60;1.90;;;15.60;99.90;;;;;;5013227;28;20381;-80
2023/03/23 06:41:32;;;;;;;3.28;2.40;;;15.50;1.00;;;;;;4994629;28;20392;-80
2023/03/23 06:43:59;;;;;;;2.30;2.10;;;15.60;99.90;;;;;;5012911;28;20802;-80
2023/03/23 06:46:25;;;;;;;2.22;1.92;;;15.70;99.90;;;;;;5012109;28;20411;-80
2023/03/23 06:48:51;;;;;;;2.67;2.00;;;15.70;99.90;;;;;;4994665;28;20389;-80
2023/03/23 06:51:18;;;;;;;2.95;1.90;;;15.80;99.90;;;;;;5011904;28;20476;-80
2023/03/23 06:53:44;;;;;;;3.85;2.25;;;15.70;99.90;;;;;;5012313;28;20428;-80
2023/03/23 06:56:11;;;;;;;2.25;2.05;;;15.80;99.90;;;;;;5011599;28;20916;-80
2023/03/23 06:58:37;;;;;;;2.33;2.13;;;15.80;99.90;;;;;;4994064;28;20493;-80
2023/03/23 07:01:03;;;;;;;2.10;1.90;;;15.80;99.90;;;;;;5000933;28;20412;-80
2023/03/23 07:03:30;;;;;;;3.20;1.90;;;15.70;99.90;;;;;;5002571;28;20480;-79
2023/03/23 07:05:56;;;;;;;2.53;1.97;;;15.60;99.90;;;;;;4995826;28;20914;-80
2023/03/23 07:08:22;;;;;;;2.43;1.87;;;15.70;99.90;;;;;;5012471;28;20397;-80
2023/03/23 07:10:52;;;;;;;2.30;2.00;;;15.70;99.90;;;;;;4999713;28;20431;-81
2023/03/23 07:13:17;;;;;;;2.65;1.80;;;15.80;99.90;;;;;;4995071;28;20396;-81
2023/03/23 07:15:43;;;;;;;2.50;1.90;;;15.80;99.90;;;;;;4994090;28;20412;-79
2023/03/23 07:18:09;;;;;;;2.70;1.80;;;15.70;99.90;;;;;;5010935;28;20879;-80
2023/03/23 07:20:35;;;;;;;2.80;1.90;;;15.70;1.00;;;;;;4994350;28;20388;-80
2023/03/23 07:23:01;;;;;;;3.30;1.77;;;15.60;1.00;;;;;;4998267;28;20886;-81
2023/03/23 07:25:27;;;;;;;3.22;2.00;;;15.60;1.00;;;;;;5012022;28;20419;-80
2023/03/23 07:27:53;;;;;;;2.33;2.05;;;15.60;1.00;;;;;;4995193;28;20401;-81
2023/03/23 07:30:18;;;;;;;2.50;1.83;;;15.50;1.00;;;;;;5032896;22;20440;-84
2023/03/23 07:32:44;;;;;;;2.03;1.70;;;15.50;1.00;;;;;;4998997;28;20400;-86
2023/03/23 07:35:10;;;;;;;2.35;2.08;;;15.40;99.90;;;;;;4994950;28;20405;-87
2023/03/23 07:37:41;;;;;;;2.45;1.80;;;15.30;99.90;;;;;;4987912;28;20455;-89
2023/03/23 07:40:09;;;;;;;2.35;1.90;;;15.20;27.80;;;;;;5005954;28;20431;-88
2023/03/23 07:42:38;;;;;;;2.28;1.60;;;15.00;21.20;;;;;;5008210;28;20393;-86
2023/03/23 07:45:03;;;;;;;2.13;1.92;;;15.00;99.90;;;;;;5014580;28;20392;-86
2023/03/23 07:47:30;;;;;;;2.60;1.90;;;14.80;93.80;;;;;;4995437;28;20945;-86
2023/03/23 07:49:55;;;;;;;3.17;2.05;;;14.60;99.90;;;;;;4995706;28;20481;-87
2023/03/23 07:52:21;;;;;;;2.40;1.90;;;14.40;99.90;;;;;;4996926;28;20913;-87
2023/03/23 07:54:46;;;;;;;3.03;2.10;;;14.40;1.00;;;;;;4992681;28;20425;-84
2023/03/23 07:57:12;;;;;;;3.10;2.50;;;14.20;1.00;;;;;;4992989;28;20405;-84
2023/03/23 07:59:37;;;;;;;2.30;1.90;;;14.10;99.90;;;;;;5015817;28;20393;-84
2023/03/23 08:02:03;;;;;;;2.57;2.30;;;14.00;99.90;;;;;;5018029;28;20416;-84
2023/03/23 08:04:29;;;;;;;2.30;2.10;;;14.10;1.00;;;;;;5014913;28;20399;-84
2023/03/23 08:06:54;;;;;;;4.07;2.20;;;14.10;54.50;;;;;;5033136;28;20385;-83
2023/03/23 08:09:20;;;;;;;1.83;1.73;;;14.10;99.90;;;;;;5032314;28;20963;-83
2023/03/23 08:11:48;;;;;;;5.57;2.83;;;14.10;1.00;;;;;;5022590;28;20411;-84
2023/03/23 08:14:13;;;;;;;4.43;2.55;;;14.00;1.00;;;;;;5019416;28;20417;-86
2023/03/23 08:16:41;;;;;;;2.40;2.20;;;14.00;1.00;;;;;;5001857;28;20894;-87
2023/03/23 08:19:11;;;;;;;3.20;2.65;;;14.10;99.90;;;;;;5019331;28;20385;-87
2023/03/23 08:21:49;;;;;;;2.95;2.70;;;14.10;1.00;;;;;;5010960;28;20771;-87
2023/03/23 08:24:15;;;;;;;3.20;2.22;;;14.00;1.00;;;;;;5016265;28;20385;-87
2023/03/23 08:26:41;;;;;;;2.20;2.00;;;14.70;1.00;;;;;;5015272;28;20400;-88
2023/03/23 08:29:09;;;;;;;3.17;2.40;;;14.10;1.00;;;;;;5016511;28;20413;-86
2023/03/23 08:31:37;;;;;;;2.97;1.90;;;14.70;1.00;;;;;;5002327;28;20413;-87
2023/03/23 08:34:04;;;;;;;2.22;2.03;;;14.80;1.00;;;;;;4997266;28;20413;-86
2023/03/23 08:36:31;;;;;;;3.05;2.10;;;13.90;1.00;;;;;;4997273;28;20385;-87
2023/03/23 08:38:57;;;;;;;2.40;2.20;;;14.70;1.00;;;;;;5014963;28;20732;-87
2023/03/23 08:41:24;;;;;;;2.58;2.20;;;13.90;1.00;;;;;;4997413;28;20393;-86
2023/03/23 08:43:50;;;;;;;3.28;2.58;;;14.00;1.00;;;;;;4995173;28;20381;-87
2023/03/23 08:46:19;;;;;;;3.60;2.10;;;13.90;73.60;;;;;;5014889;28;20392;-89
2023/03/23 08:48:46;;;;;;;2.40;2.20;;;14.10;1.00;;;;;;4997425;28;20385;-89
2023/03/23 08:51:52;;;;;;;2.60;2.13;;;14.00;1.00;;;;;;4997825;28;20814;-88
2023/03/23 08:54:40;;;;;;;5.75;2.70;;;13.60;1.00;;;;;;5007917;28;20483;-91
2023/03/23 08:57:35;;;;;;;5.10;2.72;;;13.90;1.00;;;;;;5014500;28;20397;-87
2023/03/23 09:00:28;;;;;;;2.50;2.00;;;14.10;99.90;;;;;;4997446;28;20385;-86
2023/03/23 09:03:25;;;;;;;;;;;;;;;;;;;;;
2023/03/23 09:06:46;;;;;;;2.30;2.10;;;14.00;99.90;;;;;;5011696;28;20393;-87
2023/03/23 09:10:00;;;;;;;4.20;2.70;;;14.20;30.20;;;;;;4993131;28;20491;-86
2023/03/23 09:13:15;;;;;;;2.70;2.50;;;13.60;99.90;;;;;;4995533;28;20744;-86
2023/03/23 09:23:48;;;;;;;;;;;;;;;;;;;;;
2023/03/23 09:27:00;;;;;;;2.03;1.83;;;14.60;25.60;;;;;;4994652;28;20496;-86
2023/03/23 09:30:11;;;;;;;2.17;1.98;;;15.20;18.70;;;;;;4997134;28;20400;-86
2023/03/23 09:48:21;;;;;;;;;;;;;;;;;;;;;
2023/03/23 09:51:26;;;;;;;2.15;1.60;;;16.10;11.70;;;;;;4920574;29;20408;-86
2023/03/23 09:54:41;;;;;;;1.48;1.38;;;16.20;1.00;;;;;;4932493;29;20497;-86
2023/03/23 10:04:40;;;;;;;2.40;1.70;;;16.40;99.90;;;;;;4933414;29;20368;-86
2023/03/23 10:14:35;;;;;;;2.20;1.60;;;16.60;1.00;;;;;;4962150;28;20411;-86
2023/03/23 10:28:33;;;;;;;2.78;1.60;;;17.00;1.00;;;;;;4990186;28;20477;-87
2023/03/23 10:35:06;;;;;;;1.30;1.20;;;17.20;1.00;;;;;;4914484;29;20392;-86
2023/03/23 10:41:18;;;;;;;1.40;1.20;;;17.60;99.90;;;;;;4921915;29;20399;-86
2023/03/23 10:51:15;;;;;;;1.63;1.13;;;17.50;99.90;;;;;;4881998;29;20445;-87
2023/03/23 10:54:37;;;;;;;;;;;;;;;;;;;;;
2023/03/23 10:58:15;;;;;;;2.90;1.40;;;17.80;99.90;;;;;;4892376;29;20428;-86
2023/03/23 11:02:18;;;;;;;;;;;;;;;;;;;;;
2023/03/23 11:05:24;;;;;;;;;;;;;;;;;;;;;
2023/03/23 11:11:48;;;;;;;;;;;;;;;;;;;;;
2023/03/23 11:18:56;;;;;;;2.15;1.70;;;17.80;99.90;;;;;;4824465;29;20398;-86
2023/03/23 11:27:57;;;;;;;1.77;1.50;;;17.70;99.90;;;;;;4932629;28;20442;-86
2023/03/23 11:34:54;;;;;;;;;;;;;;;;;;;;;
2023/03/23 11:38:37;;;;;;;1.50;1.40;;;17.80;99.90;;;;;;4974771;28;20409;-91
2023/03/23 11:57:13;;;;;;;;;;;;;;;;;;;;;
2023/03/23 12:00:46;;;;;;;2.72;1.60;;;18.10;99.90;;;;;;5016628;28;20423;-87
2023/03/23 12:04:07;;;;;;;;;;;;;;;;;;;;;
2023/03/23 12:10:23;;;;;;;;;;;;;;;;;;;;;
2023/03/23 12:20:28;;;;;;;1.63;1.50;;;18.20;99.90;;;;;;4967117;29;20401;-88
2023/03/23 12:23:48;;;;;;;3.20;1.70;;;18.40;99.90;;;;;;5012709;28;20412;-87
2023/03/23 12:38:06;;;;;;;2.10;1.70;;;18.40;99.90;;;;;;4938854;29;20466;-86
2023/03/23 12:48:23;;;;;;;2.00;1.77;;;17.90;99.90;;;;;;4956195;29;20365;-87
2023/03/23 12:51:46;;;;;;;;;;;;;;;;;;;;;
2023/03/23 13:29:47;;;;;;;1.85;1.50;;;17.50;99.90;;;;;;4124740;22;20452;-83
2023/03/23 13:32:16;;;;;;;2.17;1.50;;;17.50;99.90;;;;;;4998471;28;20428;-84
2023/03/23 13:34:42;;;;;;;2.78;1.60;;;17.40;99.90;;;;;;5015873;28;20891;-82
2023/03/23 13:37:21;;;;;;;2.45;1.50;;;17.40;99.90;;;;;;5015887;28;20395;-83
2023/03/23 13:40:10;;;;;;;1.50;1.40;;;17.40;99.90;;;;;;5016076;28;20492;-83
2023/03/23 13:42:47;;;;;;;2.70;1.60;;;17.50;99.90;;;;;;5015518;28;20393;-83
2023/03/23 13:45:18;;;;;;;3.08;1.60;;;17.50;99.90;;;;;;5015222;28;20825;-83
2023/03/23 13:47:46;;;;;;;1.45;1.35;;;17.60;99.90;;;;;;4997150;28;20388;-83
2023/03/23 13:50:26;;;;;;;2.25;1.70;;;17.60;99.90;;;;;;4997149;28;20389;-83
2023/03/23 13:53:00;;;;;;;1.60;1.50;;;17.70;99.90;;;;;;4999790;28;20399;-83
2023/03/23 13:55:35;;;;;;;3.17;1.73;;;17.70;99.90;;;;;;5023511;28;20475;-84
2023/03/23 13:58:05;;;;;;;1.40;1.30;;;17.60;99.90;;;;;;5000773;28;20396;-84
2023/03/23 14:00:34;;;;;;;1.40;1.30;;;17.50;99.90;;;;;;5017274;28;20510;-84
2023/03/23 14:03:33;;;;;;;1.42;1.23;;;17.70;99.90;;;;;;5016862;28;20874;-84
2023/03/23 14:05:58;;;;;;;1.50;1.40;;;17.60;99.90;;;;;;5016223;28;20412;-83
2023/03/23 14:08:30;;;;;;;2.13;1.60;;;17.50;99.90;;;;;;4999106;28;20464;-83
2023/03/23 14:11:02;;;;;;;2.78;1.30;;;17.60;99.90;;;;;;5024926;28;20478;-83
2023/03/23 14:13:31;;;;;;;1.50;1.40;;;17.60;99.90;;;;;;5035587;28;20391;-83
2023/03/23 14:16:17;;;;;;;2.08;1.40;;;17.30;99.90;;;;;;5034805;28;20426;-83
2023/03/23 14:18:52;;;;;;;1.40;1.30;;;17.30;99.90;;;;;;4997457;28;20480;-82
2023/03/23 14:21:35;;;;;;;1.50;1.40;;;17.30;99.90;;;;;;4997404;28;20424;-83
2023/03/23 14:24:09;;;;;;;1.75;1.27;;;17.10;99.90;;;;;;5015000;28;20420;-83
2023/03/23 14:26:35;;;;;;;1.85;1.50;;;17.10;99.90;;;;;;5014709;28;20763;-84
2023/03/23 14:29:01;;;;;;;2.15;1.50;;;17.10;99.90;;;;;;4998306;28;20396;-83
2023/03/23 14:31:28;;;;;;;1.50;1.20;;;17.00;99.90;;;;;;5014777;28;20397;-84
2023/03/23 14:33:55;;;;;;;1.50;1.30;;;17.00;99.90;;;;;;5014943;28;20397;-83
2023/03/23 14:36:29;;;;;;;1.55;1.30;;;16.90;99.90;;;;;;4997376;28;20535;-83
2023/03/23 14:39:12;;;;;;;2.90;1.40;;;16.90;99.90;;;;;;5017003;28;20902;-83
2023/03/23 14:41:38;;;;;;;1.40;1.30;;;17.00;99.90;;;;;;4998002;28;20401;-84
2023/03/23 14:44:08;;;;;;;1.35;1.25;;;16.90;99.90;;;;;;5016096;28;20985;-84
2023/03/23 14:46:35;;;;;;;1.85;1.20;;;16.90;99.90;;;;;;5014731;28;20408;-84
2023/03/23 14:49:03;;;;;;;1.60;1.43;;;16.90;99.90;;;;;;4997720;28;20452;-83
2023/03/23 14:51:29;;;;;;;1.60;1.42;;;17.00;99.90;;;;;;5015542;28;20419;-83
2023/03/23 14:53:55;;;;;;;1.90;1.52;;;17.00;99.90;;;;;;5015157;28;20381;-83
2023/03/23 14:56:23;;;;;;;2.20;1.60;;;17.00;99.90;;;;;;4997043;28;20409;-83
2023/03/23 14:58:50;;;;;;;1.40;1.30;;;17.00;99.90;;;;;;5014192;28;20432;-83
2023/03/23 15:01:20;;;;;;;1.60;1.50;;;16.90;99.90;;;;;;5015057;28;20462;-83
2023/03/23 15:03:55;;;;;;;2.35;1.60;;;16.90;99.90;;;;;;4997545;28;20763;-84
2023/03/23 15:06:23;;;;;;;2.13;1.50;;;17.00;99.90;;;;;;4997431;28;21093;-84
2023/03/23 15:08:52;;;;;;;1.70;1.60;;;16.90;99.90;;;;;;5015099;28;20396;-84
2023/03/23 15:11:17;;;;;;;2.35;1.65;;;16.90;99.90;;;;;;5015022;28;20396;-84
2023/03/23 15:13:54;;;;;;;4.40;1.50;;;17.00;99.90;;;;;;4997231;28;20409;-83
2023/03/23 15:16:33;;;;;;;1.50;1.40;;;17.00;99.90;;;;;;4996984;28;20477;-83
2023/03/23 15:19:05;;;;;;;2.90;1.40;;;17.00;99.90;;;;;;5016331;28;20415;-83
2023/03/23 15:21:36;;;;;;;2.00;1.80;;;17.10;99.90;;;;;;5028969;28;20755;-83
2023/03/23 15:24:18;;;;;;;1.60;1.50;;;17.20;99.90;;;;;;5011653;28;20478;-83
2023/03/23 15:26:45;;;;;;;1.55;1.45;;;17.20;99.90;;;;;;5012034;28;20409;-83
2023/03/23 15:29:16;;;;;;;1.70;1.60;;;17.10;99.90;;;;;;5022965;28;20479;-84
2023/03/23 15:31:45;;;;;;;3.23;1.70;;;17.10;99.90;;;;;;5001842;28;20404;-84
2023/03/23 15:34:24;;;;;;;1.98;1.77;;;17.00;99.90;;;;;;5000902;28;20413;-84
2023/03/23 15:37:02;;;;;;;2.63;1.70;;;16.90;99.90;;;;;;5000802;28;20397;-84
2023/03/23 15:39:28;;;;;;;3.25;1.48;;;17.00;99.90;;;;;;4981692;28;20390;-84
2023/03/23 15:41:55;;;;;;;1.52;1.42;;;17.00;99.90;;;;;;4982016;28;20918;-84
2023/03/23 15:44:30;;;;;;;2.00;1.80;;;17.00;99.90;;;;;;4981814;28;20414;-84
2023/03/23 15:47:23;;;;;;;2.50;1.90;;;17.00;99.90;;;;;;4981679;28;20405;-84
2023/03/23 15:50:02;;;;;;;2.80;2.00;;;17.00;99.90;;;;;;4994873;28;20398;-84
2023/03/23 15:52:28;;;;;;;2.50;2.00;;;17.00;99.90;;;;;;5015393;28;20396;-84
2023/03/23 15:54:54;;;;;;;2.85;1.60;;;17.10;99.90;;;;;;5001454;28;20411;-83
2023/03/23 15:57:19;;;;;;;1.70;1.60;;;17.10;99.90;;;;;;5010806;28;20393;-84
2023/03/23 15:59:45;;;;;;;2.10;1.90;;;17.10;99.90;;;;;;5007479;28;20385;-83
2023/03/23 16:02:17;;;;;;;2.73;2.00;;;17.20;99.90;;;;;;5019075;28;20388;-84
2023/03/23 16:04:43;;;;;;;1.60;1.50;;;17.10;99.90;;;;;;5019024;28;20385;-83
2023/03/23 16:07:12;;;;;;;2.07;1.60;;;17.30;99.90;;;;;;4999513;28;20432;-84
2023/03/23 16:09:41;;;;;;;3.60;1.90;;;17.40;99.90;;;;;;5001009;28;20404;-83
2023/03/23 16:12:11;;;;;;;2.70;1.80;;;17.40;99.90;;;;;;5018997;28;20482;-83
2023/03/23 16:14:38;;;;;;;2.97;1.70;;;17.30;99.90;;;;;;5037513;28;20491;-84
2023/03/23 16:17:04;;;;;;;2.00;1.60;;;17.50;99.90;;;;;;5019460;28;20437;-83